This is the latest recevied weather packets stored in our database for station/object VE1DX. If no packets are shown the sender has not sent any weather packets the latest 10 day(s).
| Time | Temp. | Humidity | Pressure | Rain* | Wind** | Luminosity | Snow |
|---|---|---|---|---|---|---|---|
| 1777773321 | 6.67° C | 70% | 1015.5 hPa | 0 mm | - | - | - |
| 1777773017 | 7.22° C | 69% | 1015.5 hPa | 0 mm | - | - | - |
| 1777772117 | 7.78° C | 68% | 1015.6 hPa | 0 mm | - | - | - |
| 1777771817 | 7.78° C | 65% | 1015.7 hPa | 0 mm | - | - | - |
| 1777767617 | 10° C | 51% | 1015.2 hPa | 0 mm | - | - | - |
| 1777766717 | 10.56° C | 52% | 1015.1 hPa | 0 mm | - | - | - |
| 1777764917 | 11.11° C | 49% | 1014.9 hPa | 0 mm | - | - | - |
| 1777761917 | 13.33° C | 44% | 1014.6 hPa | 0 mm | - | - | - |
| 1777761317 | 13.33° C | 45% | 1014.3 hPa | 0 mm | - | - | - |
| 1777760717 | 13.89° C | 45% | 1014.1 hPa | 0 mm | - | - | - |
| 1777760117 | 14.44° C | 46% | 1014.1 hPa | 0 mm | - | - | - |
| 1777759817 | 14.44° C | 45% | 1014 hPa | 0 mm | - | - | - |
| 1777759518 | 14.44° C | 45% | 1013.8 hPa | 0 mm | - | - | - |
| 1777759217 | 14.44° C | 46% | 1013.9 hPa | 0 mm | - | - | - |
| 1777758617 | 15° C | 46% | 1013.8 hPa | 0 mm | - | - | - |
| 1777757717 | 17.22° C | 44% | 1013.6 hPa | 0 mm | - | - | - |
| 1777757417 | 17.22° C | 42% | 1013.5 hPa | 0 mm | - | - | - |
| 1777757117 | 17.22° C | 41% | 1013.5 hPa | 0 mm | - | - | - |
| 1777756817 | 17.22° C | 43% | 1013.3 hPa | 0 mm | - | - | - |
| 1777756517 | 17.22° C | 43% | 1013.3 hPa | 0 mm | - | - | - |
| 1777756217 | 17.22° C | 45% | 1013.2 hPa | 0 mm | - | - | - |
| 1777755917 | 17.22° C | 44% | 1013.2 hPa | 0 mm | - | - | - |
| 1777754417 | 17.22° C | 44% | 1013.4 hPa | 0 mm | - | - | - |
| 1777753817 | 17.22° C | 46% | 1013.3 hPa | 0 mm | - | - | - |
| 1777753517 | 17.22° C | 45% | 1013.3 hPa | 0 mm | - | - | - |
* Rain latest hour (hover to see other rain measurements)
** Current wind speed in m/s (hover to see current wind gust speed)